sensor_id;sensor_type;location;lat;lon;timestamp;P1;durP1;ratioP1;P2;durP2;ratioP2
75465;SDS011;64049;46.290;44.240;2023-05-14T00:01:00;7.40;;;3.95;;
75465;SDS011;64049;46.290;44.240;2023-05-14T00:03:26;10.63;;;5.32;;
75465;SDS011;64049;46.290;44.240;2023-05-14T00:05:52;12.45;;;5.22;;
75465;SDS011;64049;46.290;44.240;2023-05-14T00:08:18;11.07;;;5.38;;
75465;SDS011;64049;46.290;44.240;2023-05-14T00:10:44;11.05;;;5.22;;
75465;SDS011;64049;46.290;44.240;2023-05-14T00:13:10;9.38;;;5.25;;
75465;SDS011;64049;46.290;44.240;2023-05-14T00:15:36;11.40;;;5.93;;
75465;SDS011;64049;46.290;44.240;2023-05-14T00:18:02;10.55;;;6.13;;
75465;SDS011;64049;46.290;44.240;2023-05-14T00:20:28;9.27;;;5.07;;
75465;SDS011;64049;46.290;44.240;2023-05-14T00:23:05;9.82;;;4.95;;
75465;SDS011;64049;46.290;44.240;2023-05-14T00:25:31;10.88;;;6.00;;
75465;SDS011;64049;46.290;44.240;2023-05-14T00:27:56;9.55;;;5.25;;
75465;SDS011;64049;46.290;44.240;2023-05-14T00:30:22;11.15;;;5.38;;
75465;SDS011;64049;46.290;44.240;2023-05-14T00:32:55;9.25;;;4.70;;
75465;SDS011;64049;46.290;44.240;2023-05-14T00:35:21;9.38;;;4.78;;
75465;SDS011;64049;46.290;44.240;2023-05-14T00:37:47;9.57;;;4.85;;
75465;SDS011;64049;46.290;44.240;2023-05-14T00:40:13;12.60;;;4.90;;
75465;SDS011;64049;46.290;44.240;2023-05-14T00:46:01;8.70;;;5.28;;
75465;SDS011;64049;46.290;44.240;2023-05-14T00:48:27;9.10;;;4.70;;
75465;SDS011;64049;46.290;44.240;2023-05-14T00:50:53;8.73;;;4.97;;
75465;SDS011;64049;46.290;44.240;2023-05-14T00:53:29;10.50;;;5.35;;
75465;SDS011;64049;46.290;44.240;2023-05-14T00:56:03;9.10;;;5.07;;
75465;SDS011;64049;46.290;44.240;2023-05-14T00:58:30;10.52;;;4.90;;
75465;SDS011;64049;46.290;44.240;2023-05-14T01:00:56;11.98;;;4.57;;
75465;SDS011;64049;46.290;44.240;2023-05-14T01:10:48;8.20;;;4.35;;
75465;SDS011;64049;46.290;44.240;2023-05-14T01:16:03;8.60;;;5.13;;
75465;SDS011;64049;46.290;44.240;2023-05-14T01:18:33;8.00;;;4.82;;
75465;SDS011;64049;46.290;44.240;2023-05-14T01:21:00;13.07;;;6.00;;
75465;SDS011;64049;46.290;44.240;2023-05-14T01:26:29;11.35;;;5.65;;
75465;SDS011;64049;46.290;44.240;2023-05-14T01:29:00;7.78;;;4.75;;
75465;SDS011;64049;46.290;44.240;2023-05-14T01:31:47;8.60;;;4.85;;
75465;SDS011;64049;46.290;44.240;2023-05-14T01:34:17;10.10;;;5.70;;
75465;SDS011;64049;46.290;44.240;2023-05-14T01:36:45;9.30;;;4.78;;
75465;SDS011;64049;46.290;44.240;2023-05-14T01:39:12;11.88;;;5.68;;
75465;SDS011;64049;46.290;44.240;2023-05-14T01:41:39;9.05;;;5.25;;
75465;SDS011;64049;46.290;44.240;2023-05-14T01:44:10;9.95;;;5.90;;
75465;SDS011;64049;46.290;44.240;2023-05-14T01:46:36;9.43;;;5.07;;
75465;SDS011;64049;46.290;44.240;2023-05-14T01:49:02;12.30;;;5.88;;
75465;SDS011;64049;46.290;44.240;2023-05-14T01:54:06;10.70;;;4.85;;
75465;SDS011;64049;46.290;44.240;2023-05-14T01:56:31;10.05;;;4.68;;
75465;SDS011;64049;46.290;44.240;2023-05-14T01:58:57;11.88;;;5.80;;
75465;SDS011;64049;46.290;44.240;2023-05-14T02:01:23;11.95;;;5.18;;
75465;SDS011;64049;46.290;44.240;2023-05-14T02:03:50;7.85;;;3.92;;
75465;SDS011;64049;46.290;44.240;2023-05-14T02:06:16;11.95;;;5.68;;
75465;SDS011;64049;46.290;44.240;2023-05-14T02:08:42;7.43;;;3.75;;
75465;SDS011;64049;46.290;44.240;2023-05-14T02:11:08;12.63;;;4.60;;
75465;SDS011;64049;46.290;44.240;2023-05-14T02:13:39;8.85;;;5.03;;
75465;SDS011;64049;46.290;44.240;2023-05-14T02:16:05;9.02;;;5.20;;
75465;SDS011;64049;46.290;44.240;2023-05-14T02:18:32;10.55;;;5.10;;
75465;SDS011;64049;46.290;44.240;2023-05-14T02:20:58;11.48;;;5.05;;
75465;SDS011;64049;46.290;44.240;2023-05-14T02:25:53;11.48;;;5.20;;
75465;SDS011;64049;46.290;44.240;2023-05-14T02:28:19;10.88;;;5.47;;
75465;SDS011;64049;46.290;44.240;2023-05-14T02:30:45;8.75;;;4.70;;
75465;SDS011;64049;46.290;44.240;2023-05-14T02:36:57;7.03;;;3.88;;
75465;SDS011;64049;46.290;44.240;2023-05-14T02:39:23;9.18;;;4.72;;
75465;SDS011;64049;46.290;44.240;2023-05-14T02:45:22;8.02;;;4.50;;
75465;SDS011;64049;46.290;44.240;2023-05-14T02:47:48;9.27;;;3.42;;
75465;SDS011;64049;46.290;44.240;2023-05-14T02:50:14;8.15;;;3.83;;
75465;SDS011;64049;46.290;44.240;2023-05-14T02:55:32;7.50;;;3.35;;
75465;SDS011;64049;46.290;44.240;2023-05-14T02:57:58;8.02;;;3.65;;
75465;SDS011;64049;46.290;44.240;2023-05-14T03:00:24;7.80;;;3.88;;
75465;SDS011;64049;46.290;44.240;2023-05-14T03:05:58;7.95;;;3.83;;
75465;SDS011;64049;46.290;44.240;2023-05-14T03:08:24;7.72;;;3.42;;
75465;SDS011;64049;46.290;44.240;2023-05-14T03:10:50;8.20;;;2.70;;
75465;SDS011;64049;46.290;44.240;2023-05-14T03:15:46;7.40;;;2.97;;
75465;SDS011;64049;46.290;44.240;2023-05-14T03:18:13;8.40;;;3.03;;
75465;SDS011;64049;46.290;44.240;2023-05-14T03:20:39;5.88;;;2.53;;
75465;SDS011;64049;46.290;44.240;2023-05-14T03:23:14;6.07;;;3.10;;
75465;SDS011;64049;46.290;44.240;2023-05-14T03:25:40;5.68;;;2.70;;
75465;SDS011;64049;46.290;44.240;2023-05-14T03:28:06;7.95;;;3.75;;
75465;SDS011;64049;46.290;44.240;2023-05-14T03:30:32;7.82;;;3.47;;
75465;SDS011;64049;46.290;44.240;2023-05-14T03:36:20;6.53;;;2.75;;
75465;SDS011;64049;46.290;44.240;2023-05-14T03:38:46;5.57;;;2.75;;
75465;SDS011;64049;46.290;44.240;2023-05-14T03:41:12;6.13;;;2.45;;
75465;SDS011;64049;46.290;44.240;2023-05-14T03:47:39;4.95;;;2.03;;
75465;SDS011;64049;46.290;44.240;2023-05-14T03:50:06;5.53;;;2.50;;
75465;SDS011;64049;46.290;44.240;2023-05-14T03:52:38;5.32;;;2.55;;
75465;SDS011;64049;46.290;44.240;2023-05-14T03:55:04;5.32;;;2.53;;
75465;SDS011;64049;46.290;44.240;2023-05-14T03:57:30;7.90;;;2.20;;
75465;SDS011;64049;46.290;44.240;2023-05-14T03:59:56;4.97;;;2.15;;
75465;SDS011;64049;46.290;44.240;2023-05-14T04:02:28;6.13;;;2.03;;
75465;SDS011;64049;46.290;44.240;2023-05-14T04:04:54;4.78;;;2.20;;
75465;SDS011;64049;46.290;44.240;2023-05-14T04:07:20;5.97;;;2.38;;
75465;SDS011;64049;46.290;44.240;2023-05-14T04:09:46;5.85;;;2.03;;
75465;SDS011;64049;46.290;44.240;2023-05-14T04:12:22;5.93;;;2.30;;
75465;SDS011;64049;46.290;44.240;2023-05-14T04:14:48;10.07;;;3.10;;
75465;SDS011;64049;46.290;44.240;2023-05-14T04:17:14;5.50;;;2.10;;
75465;SDS011;64049;46.290;44.240;2023-05-14T04:19:40;4.78;;;1.83;;
75465;SDS011;64049;46.290;44.240;2023-05-14T04:25:52;5.07;;;1.95;;
75465;SDS011;64049;46.290;44.240;2023-05-14T04:28:18;7.75;;;2.28;;
75465;SDS011;64049;46.290;44.240;2023-05-14T04:30:44;5.10;;;1.90;;
75465;SDS011;64049;46.290;44.240;2023-05-14T04:36:27;6.25;;;2.35;;
75465;SDS011;64049;46.290;44.240;2023-05-14T04:38:53;5.75;;;2.20;;
75465;SDS011;64049;46.290;44.240;2023-05-14T04:41:20;7.32;;;2.03;;
75465;SDS011;64049;46.290;44.240;2023-05-14T04:43:48;6.00;;;2.30;;
75465;SDS011;64049;46.290;44.240;2023-05-14T04:46:15;5.88;;;2.08;;
75465;SDS011;64049;46.290;44.240;2023-05-14T04:48:41;3.85;;;1.42;;
75465;SDS011;64049;46.290;44.240;2023-05-14T04:51:07;5.78;;;2.05;;
75465;SDS011;64049;46.290;44.240;2023-05-14T04:53:35;4.15;;;1.75;;
75465;SDS011;64049;46.290;44.240;2023-05-14T04:56:00;9.77;;;2.15;;
75465;SDS011;64049;46.290;44.240;2023-05-14T04:58:26;5.43;;;1.92;;
75465;SDS011;64049;46.290;44.240;2023-05-14T05:00:53;6.18;;;1.55;;
75465;SDS011;64049;46.290;44.240;2023-05-14T05:06:08;6.13;;;2.20;;
75465;SDS011;64049;46.290;44.240;2023-05-14T05:08:35;6.85;;;2.58;;
75465;SDS011;64049;46.290;44.240;2023-05-14T05:11:00;8.77;;;2.63;;
75465;SDS011;64049;46.290;44.240;2023-05-14T05:17:14;4.57;;;2.05;;
75465;SDS011;64049;46.290;44.240;2023-05-14T05:19:40;4.78;;;2.25;;
75465;SDS011;64049;46.290;44.240;2023-05-14T05:22:08;6.10;;;2.10;;
75465;SDS011;64049;46.290;44.240;2023-05-14T05:24:34;5.15;;;2.50;;
75465;SDS011;64049;46.290;44.240;2023-05-14T05:27:00;5.47;;;2.33;;
75465;SDS011;64049;46.290;44.240;2023-05-14T05:29:26;5.20;;;2.15;;
75465;SDS011;64049;46.290;44.240;2023-05-14T05:31:57;6.78;;;2.38;;
75465;SDS011;64049;46.290;44.240;2023-05-14T05:34:23;5.70;;;2.20;;
75465;SDS011;64049;46.290;44.240;2023-05-14T05:36:49;8.00;;;2.40;;
75465;SDS011;64049;46.290;44.240;2023-05-14T05:39:16;5.15;;;1.98;;
75465;SDS011;64049;46.290;44.240;2023-05-14T05:41:41;4.85;;;2.05;;
75465;SDS011;64049;46.290;44.240;2023-05-14T05:44:08;5.35;;;2.00;;
75465;SDS011;64049;46.290;44.240;2023-05-14T05:46:34;8.93;;;2.67;;
75465;SDS011;64049;46.290;44.240;2023-05-14T05:49:00;6.85;;;2.30;;
75465;SDS011;64049;46.290;44.240;2023-05-14T05:51:27;5.90;;;2.00;;
75465;SDS011;64049;46.290;44.240;2023-05-14T05:53:53;6.28;;;2.53;;
75465;SDS011;64049;46.290;44.240;2023-05-14T05:56:18;8.57;;;2.75;;
75465;SDS011;64049;46.290;44.240;2023-05-14T05:58:45;5.97;;;2.30;;
75465;SDS011;64049;46.290;44.240;2023-05-14T06:01:11;8.32;;;2.35;;
75465;SDS011;64049;46.290;44.240;2023-05-14T06:03:37;8.00;;;2.55;;
75465;SDS011;64049;46.290;44.240;2023-05-14T06:06:03;6.60;;;2.88;;
75465;SDS011;64049;46.290;44.240;2023-05-14T06:08:29;5.50;;;2.35;;
75465;SDS011;64049;46.290;44.240;2023-05-14T06:10:55;5.20;;;2.45;;
75465;SDS011;64049;46.290;44.240;2023-05-14T06:13:21;7.88;;;2.97;;
75465;SDS011;64049;46.290;44.240;2023-05-14T06:15:47;5.65;;;2.35;;
75465;SDS011;64049;46.290;44.240;2023-05-14T06:18:13;5.22;;;2.25;;
75465;SDS011;64049;46.290;44.240;2023-05-14T06:20:39;7.28;;;2.90;;
75465;SDS011;64049;46.290;44.240;2023-05-14T06:23:05;5.05;;;2.28;;
75465;SDS011;64049;46.290;44.240;2023-05-14T06:25:32;6.63;;;2.40;;
75465;SDS011;64049;46.290;44.240;2023-05-14T06:27:59;9.68;;;2.40;;
75465;SDS011;64049;46.290;44.240;2023-05-14T06:30:25;5.43;;;2.83;;
75465;SDS011;64049;46.290;44.240;2023-05-14T06:32:51;5.28;;;1.92;;
75465;SDS011;64049;46.290;44.240;2023-05-14T06:35:20;5.95;;;2.38;;
75465;SDS011;64049;46.290;44.240;2023-05-14T06:37:48;6.10;;;2.80;;
75465;SDS011;64049;46.290;44.240;2023-05-14T06:40:14;9.23;;;2.72;;
75465;SDS011;64049;46.290;44.240;2023-05-14T06:42:41;6.68;;;2.63;;
75465;SDS011;64049;46.290;44.240;2023-05-14T06:45:07;5.60;;;2.20;;
75465;SDS011;64049;46.290;44.240;2023-05-14T06:47:33;5.63;;;2.47;;
75465;SDS011;64049;46.290;44.240;2023-05-14T06:49:59;5.18;;;2.47;;
75465;SDS011;64049;46.290;44.240;2023-05-14T06:52:26;7.55;;;3.17;;
75465;SDS011;64049;46.290;44.240;2023-05-14T06:54:52;13.45;;;3.35;;
75465;SDS011;64049;46.290;44.240;2023-05-14T06:57:18;7.20;;;3.05;;
75465;SDS011;64049;46.290;44.240;2023-05-14T06:59:44;5.25;;;2.60;;
75465;SDS011;64049;46.290;44.240;2023-05-14T07:02:10;7.05;;;3.05;;
75465;SDS011;64049;46.290;44.240;2023-05-14T07:04:36;6.20;;;3.05;;
75465;SDS011;64049;46.290;44.240;2023-05-14T07:07:02;6.60;;;2.85;;
75465;SDS011;64049;46.290;44.240;2023-05-14T07:09:30;5.65;;;2.63;;
75465;SDS011;64049;46.290;44.240;2023-05-14T07:11:55;8.60;;;2.80;;
75465;SDS011;64049;46.290;44.240;2023-05-14T07:14:21;5.93;;;2.60;;
75465;SDS011;64049;46.290;44.240;2023-05-14T07:16:47;6.25;;;3.28;;
75465;SDS011;64049;46.290;44.240;2023-05-14T07:19:13;10.30;;;5.05;;
75465;SDS011;64049;46.290;44.240;2023-05-14T07:21:39;8.40;;;3.17;;
75465;SDS011;64049;46.290;44.240;2023-05-14T07:24:05;9.80;;;3.10;;
75465;SDS011;64049;46.290;44.240;2023-05-14T07:26:31;6.70;;;2.90;;
75465;SDS011;64049;46.290;44.240;2023-05-14T07:28:57;7.57;;;2.45;;
75465;SDS011;64049;46.290;44.240;2023-05-14T07:31:23;12.48;;;2.67;;
75465;SDS011;64049;46.290;44.240;2023-05-14T07:33:49;7.47;;;2.92;;
75465;SDS011;64049;46.290;44.240;2023-05-14T07:36:15;5.13;;;2.42;;
75465;SDS011;64049;46.290;44.240;2023-05-14T07:38:41;10.35;;;2.58;;
75465;SDS011;64049;46.290;44.240;2023-05-14T07:41:07;5.88;;;2.85;;
75465;SDS011;64049;46.290;44.240;2023-05-14T07:43:33;5.40;;;2.45;;
75465;SDS011;64049;46.290;44.240;2023-05-14T07:45:59;5.88;;;2.42;;
75465;SDS011;64049;46.290;44.240;2023-05-14T07:48:25;8.90;;;3.50;;
75465;SDS011;64049;46.290;44.240;2023-05-14T07:50:51;5.15;;;2.30;;
75465;SDS011;64049;46.290;44.240;2023-05-14T07:53:19;7.18;;;2.85;;
75465;SDS011;64049;46.290;44.240;2023-05-14T07:55:44;6.07;;;2.28;;
75465;SDS011;64049;46.290;44.240;2023-05-14T07:58:12;7.97;;;2.50;;
75465;SDS011;64049;46.290;44.240;2023-05-14T08:00:38;9.30;;;3.55;;
75465;SDS011;64049;46.290;44.240;2023-05-14T08:03:04;7.43;;;2.65;;
75465;SDS011;64049;46.290;44.240;2023-05-14T08:05:30;5.93;;;2.63;;
75465;SDS011;64049;46.290;44.240;2023-05-14T08:07:58;6.50;;;2.35;;
75465;SDS011;64049;46.290;44.240;2023-05-14T08:10:24;8.07;;;2.60;;
75465;SDS011;64049;46.290;44.240;2023-05-14T08:12:50;12.63;;;2.35;;
75465;SDS011;64049;46.290;44.240;2023-05-14T08:15:16;6.75;;;2.33;;
75465;SDS011;64049;46.290;44.240;2023-05-14T08:17:41;7.93;;;3.10;;
75465;SDS011;64049;46.290;44.240;2023-05-14T08:20:08;6.38;;;2.47;;
75465;SDS011;64049;46.290;44.240;2023-05-14T08:22:38;6.75;;;3.35;;
75465;SDS011;64049;46.290;44.240;2023-05-14T08:25:04;4.80;;;2.33;;
75465;SDS011;64049;46.290;44.240;2023-05-14T08:27:30;6.43;;;2.70;;
75465;SDS011;64049;46.290;44.240;2023-05-14T08:29:56;8.27;;;2.90;;
75465;SDS011;64049;46.290;44.240;2023-05-14T08:32:22;8.00;;;3.20;;
75465;SDS011;64049;46.290;44.240;2023-05-14T08:34:49;10.02;;;3.38;;
75465;SDS011;64049;46.290;44.240;2023-05-14T08:37:15;6.30;;;2.30;;
75465;SDS011;64049;46.290;44.240;2023-05-14T08:39:40;9.98;;;2.72;;
75465;SDS011;64049;46.290;44.240;2023-05-14T08:42:07;6.53;;;2.67;;
75465;SDS011;64049;46.290;44.240;2023-05-14T08:44:45;15.40;;;3.42;;
75465;SDS011;64049;46.290;44.240;2023-05-14T08:47:14;5.20;;;2.53;;
75465;SDS011;64049;46.290;44.240;2023-05-14T08:49:42;7.55;;;3.00;;
75465;SDS011;64049;46.290;44.240;2023-05-14T08:52:16;5.68;;;2.50;;
75465;SDS011;64049;46.290;44.240;2023-05-14T08:54:44;7.80;;;2.53;;
75465;SDS011;64049;46.290;44.240;2023-05-14T08:57:11;6.68;;;2.60;;
75465;SDS011;64049;46.290;44.240;2023-05-14T08:59:37;6.22;;;2.38;;
75465;SDS011;64049;46.290;44.240;2023-05-14T09:02:03;7.32;;;2.20;;
75465;SDS011;64049;46.290;44.240;2023-05-14T09:04:30;5.25;;;2.42;;
75465;SDS011;64049;46.290;44.240;2023-05-14T09:06:57;8.07;;;2.72;;
75465;SDS011;64049;46.290;44.240;2023-05-14T09:09:26;6.03;;;2.70;;
75465;SDS011;64049;46.290;44.240;2023-05-14T09:11:52;5.88;;;2.80;;
75465;SDS011;64049;46.290;44.240;2023-05-14T09:14:18;7.38;;;2.58;;
75465;SDS011;64049;46.290;44.240;2023-05-14T09:16:45;9.15;;;2.40;;
75465;SDS011;64049;46.290;44.240;2023-05-14T09:19:12;6.60;;;2.40;;
75465;SDS011;64049;46.290;44.240;2023-05-14T09:21:40;7.07;;;2.47;;
75465;SDS011;64049;46.290;44.240;2023-05-14T09:24:06;5.47;;;2.30;;
75465;SDS011;64049;46.290;44.240;2023-05-14T09:26:33;5.97;;;2.50;;
75465;SDS011;64049;46.290;44.240;2023-05-14T09:29:00;6.05;;;2.33;;
75465;SDS011;64049;46.290;44.240;2023-05-14T09:31:30;5.97;;;2.97;;
75465;SDS011;64049;46.290;44.240;2023-05-14T09:33:57;6.60;;;2.35;;
75465;SDS011;64049;46.290;44.240;2023-05-14T09:36:23;5.28;;;2.65;;
75465;SDS011;64049;46.290;44.240;2023-05-14T09:38:51;6.90;;;2.50;;
75465;SDS011;64049;46.290;44.240;2023-05-14T09:41:20;18.70;;;3.10;;
75465;SDS011;64049;46.290;44.240;2023-05-14T09:43:47;3.75;;;1.92;;
75465;SDS011;64049;46.290;44.240;2023-05-14T09:46:15;6.65;;;2.38;;
75465;SDS011;64049;46.290;44.240;2023-05-14T09:48:41;4.93;;;2.13;;
75465;SDS011;64049;46.290;44.240;2023-05-14T09:51:08;8.02;;;1.98;;
75465;SDS011;64049;46.290;44.240;2023-05-14T09:53:36;4.50;;;2.00;;
75465;SDS011;64049;46.290;44.240;2023-05-14T09:56:02;6.97;;;2.17;;
75465;SDS011;64049;46.290;44.240;2023-05-14T09:58:28;3.90;;;1.77;;
75465;SDS011;64049;46.290;44.240;2023-05-14T10:00:54;6.88;;;1.90;;
75465;SDS011;64049;46.290;44.240;2023-05-14T10:03:22;4.90;;;2.13;;
75465;SDS011;64049;46.290;44.240;2023-05-14T10:05:50;5.78;;;2.22;;
75465;SDS011;64049;46.290;44.240;2023-05-14T10:08:24;4.90;;;1.80;;
75465;SDS011;64049;46.290;44.240;2023-05-14T10:10:52;3.63;;;1.63;;
75465;SDS011;64049;46.290;44.240;2023-05-14T10:13:21;4.40;;;2.30;;
75465;SDS011;64049;46.290;44.240;2023-05-14T10:15:52;4.68;;;2.00;;
75465;SDS011;64049;46.290;44.240;2023-05-14T10:18:22;3.80;;;1.70;;
75465;SDS011;64049;46.290;44.240;2023-05-14T10:20:56;6.25;;;2.08;;
75465;SDS011;64049;46.290;44.240;2023-05-14T10:23:29;5.63;;;1.45;;
75465;SDS011;64049;46.290;44.240;2023-05-14T10:25:56;4.50;;;1.40;;
75465;SDS011;64049;46.290;44.240;2023-05-14T10:28:23;8.15;;;2.42;;
75465;SDS011;64049;46.290;44.240;2023-05-14T10:30:50;9.05;;;1.98;;
75465;SDS011;64049;46.290;44.240;2023-05-14T10:33:16;4.90;;;1.98;;
75465;SDS011;64049;46.290;44.240;2023-05-14T10:38:32;3.72;;;1.70;;
75465;SDS011;64049;46.290;44.240;2023-05-14T10:41:00;5.18;;;1.83;;
75465;SDS011;64049;46.290;44.240;2023-05-14T10:43:28;11.00;;;2.03;;
75465;SDS011;64049;46.290;44.240;2023-05-14T10:45:55;7.47;;;2.17;;
75465;SDS011;64049;46.290;44.240;2023-05-14T10:48:23;5.88;;;1.67;;
75465;SDS011;64049;46.290;44.240;2023-05-14T10:50:52;6.43;;;2.35;;
75465;SDS011;64049;46.290;44.240;2023-05-14T10:53:19;7.15;;;1.50;;
75465;SDS011;64049;46.290;44.240;2023-05-14T10:55:54;6.93;;;2.08;;
75465;SDS011;64049;46.290;44.240;2023-05-14T10:58:20;5.72;;;1.50;;
75465;SDS011;64049;46.290;44.240;2023-05-14T11:00:46;10.13;;;2.10;;
75465;SDS011;64049;46.290;44.240;2023-05-14T11:03:14;4.95;;;2.08;;
75465;SDS011;64049;46.290;44.240;2023-05-14T11:05:40;5.25;;;1.90;;
75465;SDS011;64049;46.290;44.240;2023-05-14T11:08:07;4.35;;;1.63;;
75465;SDS011;64049;46.290;44.240;2023-05-14T11:10:33;2.70;;;1.10;;
75465;SDS011;64049;46.290;44.240;2023-05-14T11:12:59;6.25;;;1.67;;
75465;SDS011;64049;46.290;44.240;2023-05-14T11:15:25;4.07;;;1.58;;
75465;SDS011;64049;46.290;44.240;2023-05-14T11:17:52;4.10;;;1.33;;
75465;SDS011;64049;46.290;44.240;2023-05-14T11:20:19;7.00;;;2.03;;
75465;SDS011;64049;46.290;44.240;2023-05-14T11:22:45;7.00;;;1.77;;
75465;SDS011;64049;46.290;44.240;2023-05-14T11:25:13;4.20;;;1.95;;
75465;SDS011;64049;46.290;44.240;2023-05-14T11:27:40;4.90;;;1.73;;
75465;SDS011;64049;46.290;44.240;2023-05-14T11:30:17;6.65;;;1.92;;
75465;SDS011;64049;46.290;44.240;2023-05-14T11:32:44;3.22;;;1.20;;
75465;SDS011;64049;46.290;44.240;2023-05-14T11:35:11;5.25;;;2.15;;
75465;SDS011;64049;46.290;44.240;2023-05-14T11:37:38;3.50;;;1.50;;
75465;SDS011;64049;46.290;44.240;2023-05-14T11:40:06;3.20;;;1.65;;
75465;SDS011;64049;46.290;44.240;2023-05-14T11:42:35;4.75;;;1.90;;
75465;SDS011;64049;46.290;44.240;2023-05-14T11:45:01;4.22;;;1.83;;
75465;SDS011;64049;46.290;44.240;2023-05-14T11:47:28;3.75;;;1.30;;
75465;SDS011;64049;46.290;44.240;2023-05-14T11:49:54;3.83;;;1.42;;
75465;SDS011;64049;46.290;44.240;2023-05-14T11:52:20;4.88;;;1.70;;
75465;SDS011;64049;46.290;44.240;2023-05-14T11:54:46;4.53;;;1.40;;
75465;SDS011;64049;46.290;44.240;2023-05-14T11:57:17;5.40;;;1.75;;
75465;SDS011;64049;46.290;44.240;2023-05-14T11:59:45;3.30;;;1.75;;
75465;SDS011;64049;46.290;44.240;2023-05-14T12:02:13;4.43;;;1.42;;
75465;SDS011;64049;46.290;44.240;2023-05-14T12:04:41;6.13;;;1.58;;
75465;SDS011;64049;46.290;44.240;2023-05-14T12:07:11;6.40;;;1.73;;
75465;SDS011;64049;46.290;44.240;2023-05-14T12:09:39;6.90;;;2.00;;
75465;SDS011;64049;46.290;44.240;2023-05-14T12:12:08;3.35;;;1.17;;
75465;SDS011;64049;46.290;44.240;2023-05-14T12:14:40;5.43;;;1.48;;
75465;SDS011;64049;46.290;44.240;2023-05-14T12:17:14;5.25;;;1.67;;
75465;SDS011;64049;46.290;44.240;2023-05-14T12:19:42;6.10;;;2.10;;
75465;SDS011;64049;46.290;44.240;2023-05-14T12:22:09;10.63;;;1.90;;
75465;SDS011;64049;46.290;44.240;2023-05-14T12:27:03;3.80;;;1.13;;
75465;SDS011;64049;46.290;44.240;2023-05-14T12:29:29;3.22;;;1.25;;
75465;SDS011;64049;46.290;44.240;2023-05-14T12:31:59;4.22;;;1.60;;
75465;SDS011;64049;46.290;44.240;2023-05-14T12:34:28;3.55;;;1.48;;
75465;SDS011;64049;46.290;44.240;2023-05-14T12:36:54;5.80;;;1.80;;
75465;SDS011;64049;46.290;44.240;2023-05-14T12:39:20;4.47;;;1.60;;
75465;SDS011;64049;46.290;44.240;2023-05-14T12:41:45;3.33;;;1.30;;
75465;SDS011;64049;46.290;44.240;2023-05-14T12:44:11;5.35;;;1.67;;
75465;SDS011;64049;46.290;44.240;2023-05-14T12:46:37;6.72;;;2.30;;
75465;SDS011;64049;46.290;44.240;2023-05-14T12:49:03;5.07;;;1.67;;
75465;SDS011;64049;46.290;44.240;2023-05-14T12:51:31;7.55;;;1.88;;
75465;SDS011;64049;46.290;44.240;2023-05-14T12:53:57;5.35;;;2.28;;
75465;SDS011;64049;46.290;44.240;2023-05-14T12:56:23;3.47;;;1.25;;
75465;SDS011;64049;46.290;44.240;2023-05-14T12:58:53;5.38;;;1.58;;
75465;SDS011;64049;46.290;44.240;2023-05-14T13:01:20;7.72;;;1.88;;
75465;SDS011;64049;46.290;44.240;2023-05-14T13:03:46;7.05;;;1.77;;
75465;SDS011;64049;46.290;44.240;2023-05-14T13:06:12;4.30;;;1.60;;
75465;SDS011;64049;46.290;44.240;2023-05-14T13:08:38;4.00;;;1.48;;
75465;SDS011;64049;46.290;44.240;2023-05-14T13:11:03;4.32;;;1.95;;
75465;SDS011;64049;46.290;44.240;2023-05-14T13:13:29;6.75;;;1.85;;
75465;SDS011;64049;46.290;44.240;2023-05-14T13:15:55;4.00;;;1.60;;
75465;SDS011;64049;46.290;44.240;2023-05-14T13:18:21;5.22;;;2.05;;
75465;SDS011;64049;46.290;44.240;2023-05-14T13:20:47;3.92;;;1.55;;
75465;SDS011;64049;46.290;44.240;2023-05-14T13:23:13;6.32;;;2.13;;
75465;SDS011;64049;46.290;44.240;2023-05-14T13:25:39;5.40;;;1.98;;
75465;SDS011;64049;46.290;44.240;2023-05-14T13:28:05;5.07;;;1.60;;
75465;SDS011;64049;46.290;44.240;2023-05-14T13:30:31;2.47;;;0.85;;
75465;SDS011;64049;46.290;44.240;2023-05-14T13:32:58;6.20;;;1.85;;
75465;SDS011;64049;46.290;44.240;2023-05-14T13:35:24;2.78;;;1.10;;
75465;SDS011;64049;46.290;44.240;2023-05-14T13:37:50;3.47;;;1.02;;
75465;SDS011;64049;46.290;44.240;2023-05-14T13:40:16;2.22;;;0.82;;
75465;SDS011;64049;46.290;44.240;2023-05-14T13:42:42;1.92;;;0.73;;
75465;SDS011;64049;46.290;44.240;2023-05-14T13:45:08;1.88;;;0.68;;
75465;SDS011;64049;46.290;44.240;2023-05-14T13:47:34;2.75;;;0.68;;
75465;SDS011;64049;46.290;44.240;2023-05-14T13:50:00;2.78;;;1.00;;
75465;SDS011;64049;46.290;44.240;2023-05-14T13:52:26;3.42;;;1.15;;
75465;SDS011;64049;46.290;44.240;2023-05-14T13:54:52;1.60;;;0.70;;
75465;SDS011;64049;46.290;44.240;2023-05-14T13:57:18;6.30;;;2.35;;
75465;SDS011;64049;46.290;44.240;2023-05-14T13:59:45;4.85;;;2.15;;
75465;SDS011;64049;46.290;44.240;2023-05-14T14:02:11;5.93;;;1.63;;
75465;SDS011;64049;46.290;44.240;2023-05-14T14:04:37;6.72;;;1.27;;
75465;SDS011;64049;46.290;44.240;2023-05-14T14:07:03;2.58;;;1.02;;
75465;SDS011;64049;46.290;44.240;2023-05-14T14:09:29;6.03;;;2.47;;
75465;SDS011;64049;46.290;44.240;2023-05-14T14:12:01;5.68;;;1.60;;
75465;SDS011;64049;46.290;44.240;2023-05-14T14:14:28;2.03;;;0.90;;
75465;SDS011;64049;46.290;44.240;2023-05-14T14:16:54;3.10;;;1.13;;
75465;SDS011;64049;46.290;44.240;2023-05-14T14:19:20;2.40;;;0.77;;
75465;SDS011;64049;46.290;44.240;2023-05-14T14:21:46;3.22;;;0.77;;
75465;SDS011;64049;46.290;44.240;2023-05-14T14:24:12;6.65;;;1.35;;
75465;SDS011;64049;46.290;44.240;2023-05-14T14:26:38;2.75;;;0.98;;
75465;SDS011;64049;46.290;44.240;2023-05-14T14:29:03;2.50;;;1.02;;
75465;SDS011;64049;46.290;44.240;2023-05-14T14:31:29;5.00;;;1.15;;
75465;SDS011;64049;46.290;44.240;2023-05-14T14:33:55;5.55;;;1.10;;
75465;SDS011;64049;46.290;44.240;2023-05-14T14:36:21;4.00;;;1.50;;
75465;SDS011;64049;46.290;44.240;2023-05-14T14:38:47;2.45;;;0.55;;
75465;SDS011;64049;46.290;44.240;2023-05-14T14:41:13;2.72;;;1.00;;
75465;SDS011;64049;46.290;44.240;2023-05-14T14:43:39;2.95;;;1.25;;
75465;SDS011;64049;46.290;44.240;2023-05-14T14:46:05;2.03;;;0.65;;
75465;SDS011;64049;46.290;44.240;2023-05-14T14:48:34;2.13;;;0.70;;
75465;SDS011;64049;46.290;44.240;2023-05-14T14:51:03;3.85;;;1.00;;
75465;SDS011;64049;46.290;44.240;2023-05-14T14:53:30;4.45;;;0.80;;
75465;SDS011;64049;46.290;44.240;2023-05-14T14:55:57;2.22;;;0.63;;
75465;SDS011;64049;46.290;44.240;2023-05-14T14:58:23;1.83;;;0.65;;
75465;SDS011;64049;46.290;44.240;2023-05-14T15:00:50;5.68;;;1.30;;
75465;SDS011;64049;46.290;44.240;2023-05-14T15:03:17;3.05;;;0.82;;
75465;SDS011;64049;46.290;44.240;2023-05-14T15:05:44;4.22;;;1.00;;
75465;SDS011;64049;46.290;44.240;2023-05-14T15:08:10;6.22;;;1.33;;
75465;SDS011;64049;46.290;44.240;2023-05-14T15:10:36;3.75;;;1.10;;
75465;SDS011;64049;46.290;44.240;2023-05-14T15:13:03;4.05;;;0.90;;
75465;SDS011;64049;46.290;44.240;2023-05-14T15:15:31;7.28;;;1.48;;
75465;SDS011;64049;46.290;44.240;2023-05-14T15:17:58;5.22;;;1.30;;
75465;SDS011;64049;46.290;44.240;2023-05-14T15:20:23;3.25;;;1.00;;
75465;SDS011;64049;46.290;44.240;2023-05-14T15:22:49;5.50;;;1.48;;
75465;SDS011;64049;46.290;44.240;2023-05-14T15:25:21;6.18;;;1.40;;
75465;SDS011;64049;46.290;44.240;2023-05-14T15:27:48;4.43;;;1.40;;
75465;SDS011;64049;46.290;44.240;2023-05-14T15:30:14;14.48;;;4.50;;
75465;SDS011;64049;46.290;44.240;2023-05-14T15:32:40;10.70;;;4.40;;
75465;SDS011;64049;46.290;44.240;2023-05-14T15:35:07;6.60;;;1.83;;